AirNav   Duncan Aviation - Near you to keep you flying
 
 927 users online  

AZ45 China Peak Observatory Airport
Klondyke, Arizona, USA

GOING TO KLONDYKE?


FAA INFORMATION EFFECTIVE 27 JANUARY 2022

Location

FAA Identifier: AZ45
Lat/Long: 32-43-45.2450N 110-17-47.3110W
32-43.754083N 110-17.788517W
32.7292347,-110.2964753
(estimated)
Elevation: 4800 ft. / 1463 m (estimated)
Variation: 12E (1985)
From city: 7 miles SE of KLONDYKE, AZ
Time zone: UTC -7 (year round; does not observe DST)
Zip code: 85643

Airport Operations

Airport use: Private use. Permission required prior to landing
Activation date: 07/1989
Control tower: no
ARTCC: ALBUQUERQUE CENTER
FSS: PRESCOTT FLIGHT SERVICE STATION
Attendance: IREG
Wind indicator: yes
Segmented circle: no

Airport Communications

WX AWOS-3PT at E77 (19 nm W): 134.125 (520-385-4238)

Airport Services

Runway Information

Runway 1/19

Dimensions: 4500 x 150 ft. / 1372 x 46 m
Surface: turf
RUNWAY 1  RUNWAY 19
Traffic pattern: leftleft

Runway 4/22

Dimensions: 3100 x 125 ft. / 945 x 38 m
Surface: turf
RUNWAY 4  RUNWAY 22
Traffic pattern: leftleft

Runway 15/33

Dimensions: 1950 x 110 ft. / 594 x 34 m
Surface: turf
RUNWAY 15  RUNWAY 33
Traffic pattern: leftleft

Runway 12/30

Dimensions: 1650 x 120 ft. / 503 x 37 m
Surface: turf
RUNWAY 12  RUNWAY 30
Traffic pattern: leftleft

Airport Ownership and Management from official FAA records

Ownership: Privately-owned
Owner: D. MORRIS
2525 E CAPITAN DREYFUS AVE
PHOENIX, AZ 85032
Phone 602-267-7447
Manager: NONE

Airport Operational Statistics

Aircraft based on the field: 1
Single engine airplanes: 1
    

Additional Remarks

FOR CD CTC ALBUQUERQUE ARTCC AT 505-856-4861.

Instrument Procedures

There are no published instrument procedures at AZ45.

Some nearby airports with instrument procedures:

KSAD - Safford Regional Airport (34 nm E)
P33 - Cochise County Airport (35 nm SE)
P13 - San Carlos Apache Airport (42 nm NW)
KDMA - Davis Monthan Air Force Base (45 nm SW)
KTUS - Tucson International Airport (49 nm SW)
 
Loc | Ops | Rwys | IFR | FBO | Links
Com | Nav | Svcs | Stats | Notes
Area around AZ45 (China Peak Observatory Airport)
 
Road maps at: MapQuest Bing Google
 
Aerial photo
No photo
 
Sectional chart

 
Airport distance calculator
Flying to China Peak Observatory Airport? Find the distance to fly.

From to AZ45

Sunrise and sunset
Times for 29-Jan-2022
 Local
(UTC-7)
 Zulu
(UTC)
Morning civil twilight06:5313:53
Sunrise07:1914:19
Sunset17:5000:50
Evening civil twilight18:1601:16

Current date and time
Zulu (UTC)  29-Jan-2022 09:11:07
Local (UTC-7)  29-Jan-2022 02:11:07
 
METAR
KSAD 
34nm E 
290851Z AUTO 13008KT 10SM CLR 04/M07 A3035 RMK AO2 SLP267 T00391067 57008
KDMA 
44nm SW 
290458Z AUTO 06005KT 10SM SCT190 BKN220 09/M08 A3023 RMK AO2 SLP224 T00921079 $
KTUS 
49nm SW 
290853Z AUTO 11013G20KT 10SM CLR 11/M08 A3022 RMK AO2 SLP209 T01111078 58010
TAF
KDMA 
44nm SW 
290001Z 2900/3004 06012G18KT 9999 SCT220 QNH3018INS BECMG 2903/2904 09012KT 9999 BKN200 QNH3015INS BECMG 2914/2915 12015G20KT 9999 SCT160 510008 QNH3005INS TEMPO 2916/2920 12020G30KT 520008 BECMG 3003/3004 11012KT 9999 FEW130 SCT230 QNH3005INS TX20/2921Z TN05/2914Z
KTUS 
49nm SW 
290226Z 2902/2924 09009G16KT P6SM SCT140 BKN200 FM291500 11018G28KT P6SM SCT200 FM292000 09010KT P6SM SKC
NOTAMs
Click for the latest NOTAMs
NOTAMs are issued by the DoD/FAA and will open in a separate window not controlled by AirNav.

 

 
 

Would you like to see your business listed on this page?

 If your business provides an interesting product or service to pilots, flight crews, aircraft, or users of the China Peak Observatory Airport, you should consider listing it here.  To start the listing process, click on the button below
 
Add a business
 

Other Pages about China Peak Observatory Airport

Update a link
 
Copyright © AirNav, LLC. All rights reserved. Privacy Policy  Contact